Time;durP1;ratioP1;P1;durP2;ratioP2;P2;SDS_P1;SDS_P2;PMS_P1;PMS_P2;Temp;Humidity;BMP_temperature;BMP_pressure;BME280_temperature;BME280_humidity;BME280_pressure;Samples;Min_cycle;Max_cycle;Signal;HPM_P1;HPM_P2
2022/05/09 00:01:13;;;;;;;13.13;5.70;;;5.80;85.40;;;;;;5028847;28;20026;-43
2022/05/09 00:03:40;;;;;;;17.15;6.18;;;5.70;85.40;;;;;;5012484;28;20054;-43
2022/05/09 00:06:09;;;;;;;11.85;5.57;;;5.70;85.40;;;;;;5013193;28;20030;-43
2022/05/09 00:08:36;;;;;;;11.38;5.32;;;5.70;85.60;;;;;;5008730;28;20112;-44
2022/05/09 00:11:02;;;;;;;11.60;5.90;;;5.70;85.40;;;;;;5002323;28;20504;-45
2022/05/09 00:13:27;;;;;;;11.20;5.10;;;5.60;85.40;;;;;;5012566;28;20033;-43
2022/05/09 00:15:58;;;;;;;9.27;4.53;;;5.70;85.60;;;;;;5013234;28;20068;-42
2022/05/09 00:18:24;;;;;;;10.30;4.85;;;5.60;85.30;;;;;;5014990;28;20347;-43
2022/05/09 00:20:50;;;;;;;8.35;4.80;;;5.50;85.50;;;;;;5012723;28;20108;-45
2022/05/09 00:23:17;;;;;;;12.00;4.68;;;5.50;85.40;;;;;;5012685;28;20483;-42
2022/05/09 00:25:42;;;;;;;7.15;4.85;;;5.50;85.30;;;;;;5013183;28;20026;-43
2022/05/09 00:28:09;;;;;;;8.25;4.13;;;5.40;85.50;;;;;;5012470;28;20087;-43
2022/05/09 00:30:36;;;;;;;9.13;4.80;;;5.40;85.60;;;;;;5012995;28;20037;-42
2022/05/09 00:33:04;;;;;;;7.72;4.50;;;5.40;85.50;;;;;;5011370;28;20034;-42
2022/05/09 00:35:33;;;;;;;9.98;4.53;;;5.40;85.60;;;;;;5012658;28;20026;-43
2022/05/09 00:38:00;;;;;;;7.28;4.32;;;5.40;85.60;;;;;;5011434;28;20040;-43
2022/05/09 00:40:27;;;;;;;9.13;4.65;;;5.40;85.60;;;;;;5012906;28;20160;-42
2022/05/09 00:42:54;;;;;;;6.90;4.28;;;5.40;85.50;;;;;;5012456;28;20050;-43
2022/05/09 00:45:23;;;;;;;10.85;5.22;;;5.40;85.40;;;;;;5011951;28;20029;-43
2022/05/09 00:47:50;;;;;;;9.10;4.97;;;5.40;85.50;;;;;;5016238;28;20117;-42
2022/05/09 00:50:29;;;;;;;10.55;4.18;;;5.40;85.80;;;;;;5016495;28;20473;-44
2022/05/09 00:53:05;;;;;;;12.80;5.40;;;5.40;85.50;;;;;;5016440;28;20026;-43
2022/05/09 00:55:42;;;;;;;6.47;3.88;;;5.40;85.50;;;;;;5038110;28;20469;-43
2022/05/09 00:58:38;;;;;;;10.68;5.13;;;5.40;85.40;;;;;;5052960;28;20506;-42
2022/05/09 01:01:09;;;;;;;11.43;7.35;;;5.30;85.30;;;;;;5036156;28;20435;-44
2022/05/09 01:04:11;;;;;;;8.70;3.88;;;5.30;85.60;;;;;;5049875;28;20128;-41
2022/05/09 01:06:38;;;;;;;7.93;4.57;;;5.30;85.70;;;;;;5053786;28;20449;-42
2022/05/09 01:09:06;;;;;;;7.70;4.60;;;5.30;85.70;;;;;;5055836;28;20037;-44
2022/05/09 01:11:34;;;;;;;8.38;4.05;;;5.30;85.80;;;;;;5055366;28;20028;-44
2022/05/09 01:14:13;;;;;;;12.55;5.13;;;5.30;85.90;;;;;;5071089;28;20083;-43
2022/05/09 01:16:41;;;;;;;7.47;4.10;;;5.30;85.80;;;;;;5054580;28;20028;-44
2022/05/09 01:19:36;;;;;;;9.23;4.35;;;5.30;85.60;;;;;;5055661;28;20088;-42
2022/05/09 01:22:17;;;;;;;7.55;4.57;;;5.30;85.70;;;;;;5053757;28;20026;-42
2022/05/09 01:24:44;;;;;;;9.63;4.53;;;5.30;85.80;;;;;;5035587;28;20162;-42
2022/05/09 01:27:10;;;;;;;7.88;4.38;;;5.30;85.70;;;;;;5054332;28;20029;-43
2022/05/09 01:30:00;;;;;;;8.18;5.07;;;5.30;85.70;;;;;;5055596;28;20036;-42
2022/05/09 01:32:36;;;;;;;6.80;4.15;;;5.30;85.70;;;;;;5053610;28;20029;-42
2022/05/09 01:35:27;;;;;;;7.32;3.90;;;5.20;85.70;;;;;;5071010;28;20025;-42
2022/05/09 01:38:23;;;;;;;9.25;3.78;;;5.30;85.90;;;;;;5021949;28;20041;-43
2022/05/09 01:40:49;;;;;;;5.30;3.15;;;5.20;85.90;;;;;;5037715;28;20087;-42
2022/05/09 01:43:40;;;;;;;7.65;3.72;;;5.20;85.90;;;;;;5055208;28;20100;-42
2022/05/09 01:46:16;;;;;;;8.15;3.85;;;5.20;85.80;;;;;;5069466;28;20347;-42
2022/05/09 01:51:28;;;;;;;6.50;3.90;;;5.20;86.20;;;;;;5053545;28;20091;-42
2022/05/09 01:53:54;;;;;;;7.05;3.83;;;5.20;86.30;;;;;;5061094;28;20053;-43
2022/05/09 01:56:29;;;;;;;7.07;3.50;;;5.20;86.10;;;;;;5014927;28;20044;-43
2022/05/09 01:58:55;;;;;;;10.45;4.03;;;5.20;86.00;;;;;;5047398;28;20069;-42
2022/05/09 02:01:26;;;;;;;5.70;2.92;;;5.20;85.70;;;;;;5008508;28;20064;-41
2022/05/09 02:03:52;;;;;;;6.93;3.50;;;5.10;85.60;;;;;;5014652;28;20032;-42
2022/05/09 02:06:20;;;;;;;7.53;3.80;;;5.10;85.70;;;;;;5014451;28;20022;-42
2022/05/09 02:08:48;;;;;;;8.18;3.83;;;5.10;85.60;;;;;;5047559;28;20040;-42
2022/05/09 02:11:15;;;;;;;6.32;3.65;;;5.00;85.50;;;;;;5013870;28;20868;-42
2022/05/09 02:13:41;;;;;;;4.82;3.58;;;5.00;85.60;;;;;;5014864;28;20033;-42
2022/05/09 02:16:08;;;;;;;5.97;3.00;;;5.00;85.70;;;;;;5014076;28;20034;-44
2022/05/09 02:18:35;;;;;;;7.25;3.25;;;5.00;85.60;;;;;;5014777;28;20029;-42
2022/05/09 02:21:04;;;;;;;6.20;3.47;;;5.00;85.60;;;;;;5047010;28;20026;-42
2022/05/09 02:23:31;;;;;;;5.65;3.10;;;4.90;85.50;;;;;;5017067;28;20112;-42
2022/05/09 02:25:58;;;;;;;5.55;2.72;;;4.90;85.60;;;;;;5034147;28;20124;-42
2022/05/09 02:28:25;;;;;;;5.30;2.83;;;4.90;85.40;;;;;;5014680;28;20095;-42
2022/05/09 02:30:52;;;;;;;4.78;2.83;;;4.90;85.40;;;;;;5014766;28;20030;-43
2022/05/09 02:33:17;;;;;;;5.35;3.17;;;4.80;85.50;;;;;;5013971;28;20108;-42
2022/05/09 02:35:44;;;;;;;5.10;3.13;;;4.80;85.40;;;;;;5014493;28;20112;-42
2022/05/09 02:38:11;;;;;;;3.85;2.63;;;4.80;85.50;;;;;;5013978;28;20443;-42
2022/05/09 02:40:38;;;;;;;5.65;3.20;;;4.80;85.70;;;;;;5046552;28;20439;-41
2022/05/09 02:43:07;;;;;;;5.45;2.83;;;4.80;85.60;;;;;;5014006;28;20026;-42
2022/05/09 02:45:34;;;;;;;4.80;3.00;;;4.80;85.50;;;;;;5014266;28;20029;-42
2022/05/09 02:48:01;;;;;;;5.13;3.38;;;4.80;85.50;;;;;;5028370;28;20307;-43
2022/05/09 02:50:28;;;;;;;5.50;3.50;;;4.80;85.30;;;;;;5014179;28;20103;-43
2022/05/09 02:52:55;;;;;;;4.40;3.20;;;4.70;85.30;;;;;;5013735;28;20029;-42
2022/05/09 02:55:22;;;;;;;4.80;3.50;;;4.70;85.70;;;;;;5049970;28;20036;-42
2022/05/09 02:57:50;;;;;;;5.07;3.05;;;4.70;85.90;;;;;;5051824;28;20362;-42
2022/05/09 03:00:34;;;;;;;4.55;3.05;;;4.70;85.80;;;;;;5051208;28;20491;-41
2022/05/09 03:05:46;;;;;;;4.85;2.90;;;4.70;85.60;;;;;;5053812;28;20043;-42
2022/05/09 03:08:14;;;;;;;5.47;3.33;;;4.70;85.60;;;;;;5052204;28;20104;-41
2022/05/09 03:10:42;;;;;;;6.88;3.65;;;4.70;85.70;;;;;;5035202;28;20029;-42
2022/05/09 03:13:12;;;;;;;7.25;3.80;;;4.70;85.70;;;;;;5051609;28;20107;-41
2022/05/09 03:15:42;;;;;;;4.82;3.33;;;4.60;85.60;;;;;;5051691;28;20025;-46
2022/05/09 03:18:11;;;;;;;4.85;3.15;;;4.60;85.60;;;;;;5050178;28;20033;-41
2022/05/09 03:20:39;;;;;;;4.20;3.03;;;4.60;85.60;;;;;;5051697;28;20079;-41
2022/05/09 03:23:07;;;;;;;16.48;9.25;;;4.60;85.70;;;;;;5049491;28;20032;-41
2022/05/09 03:25:36;;;;;;;33.78;14.98;;;4.60;85.80;;;;;;5046194;28;20380;-42
2022/05/09 03:28:10;;;;;;;40.17;21.33;;;4.60;85.70;;;;;;5044540;28;20076;-41
2022/05/09 03:30:38;;;;;;;35.65;18.15;;;4.70;85.70;;;;;;5044918;28;20033;-42
2022/05/09 03:33:06;;;;;;;28.90;15.20;;;4.60;85.70;;;;;;5044542;28;20111;-41
2022/05/09 03:35:34;;;;;;;34.63;19.00;;;4.60;85.70;;;;;;5052111;28;20064;-41
2022/05/09 03:38:01;;;;;;;39.83;23.25;;;4.60;85.50;;;;;;5050987;28;20319;-42
2022/05/09 03:40:28;;;;;;;50.92;25.10;;;4.60;85.70;;;;;;5035658;28;20025;-41
2022/05/09 03:42:56;;;;;;;33.85;17.02;;;4.60;85.70;;;;;;5050604;28;20025;-43
2022/05/09 03:45:26;;;;;;;31.30;13.52;;;4.60;85.80;;;;;;5053002;28;20020;-42
2022/05/09 03:47:55;;;;;;;27.45;11.48;;;4.60;85.80;;;;;;5033717;28;20040;-43
2022/05/09 03:50:22;;;;;;;22.02;12.48;;;4.60;85.60;;;;;;5052838;28;20090;-42
2022/05/09 03:52:49;;;;;;;23.60;11.65;;;4.60;85.60;;;;;;5051527;28;20029;-41
2022/05/09 03:55:16;;;;;;;15.98;10.02;;;4.60;85.70;;;;;;5052694;28;20110;-41
2022/05/09 03:57:52;;;;;;;13.65;6.35;;;4.70;85.80;;;;;;5034140;28;20061;-42
2022/05/09 04:00:24;;;;;;;9.10;4.55;;;4.70;85.80;;;;;;5052818;28;20021;-41
2022/05/09 04:02:51;;;;;;;6.43;4.07;;;4.70;85.70;;;;;;5050253;28;20062;-42
2022/05/09 04:05:18;;;;;;;8.43;4.53;;;4.60;85.60;;;;;;5052440;28;20040;-42
2022/05/09 04:07:48;;;;;;;7.18;4.40;;;4.70;85.70;;;;;;5048695;28;20082;-41
2022/05/09 04:10:18;;;;;;;6.47;3.92;;;4.70;85.70;;;;;;5052771;28;20466;-42
2022/05/09 04:12:49;;;;;;;6.78;3.40;;;4.70;85.60;;;;;;5051588;28;20084;-41
2022/05/09 04:18:01;;;;;;;6.22;3.90;;;4.80;85.50;;;;;;5051079;28;20068;-42
2022/05/09 04:20:29;;;;;;;6.45;4.03;;;4.80;85.50;;;;;;5054255;28;20029;-42
2022/05/09 04:22:57;;;;;;;6.10;3.83;;;4.90;85.70;;;;;;5054930;28;20029;-41
2022/05/09 04:25:26;;;;;;;7.05;3.72;;;5.00;85.70;;;;;;5056467;28;20059;-41
2022/05/09 04:27:54;;;;;;;5.78;3.83;;;5.00;85.50;;;;;;5038020;28;20048;-41
2022/05/09 04:30:23;;;;;;;6.70;3.58;;;5.20;85.30;;;;;;5051275;28;20029;-42
2022/05/09 04:32:50;;;;;;;6.47;3.83;;;5.20;85.30;;;;;;5056941;28;20028;-42
2022/05/09 04:35:19;;;;;;;5.78;3.92;;;5.30;85.20;;;;;;5054184;28;20056;-42
2022/05/09 04:37:48;;;;;;;7.85;4.22;;;5.40;85.10;;;;;;5054226;28;20017;-42
2022/05/09 04:40:24;;;;;;;5.82;3.75;;;5.40;85.10;;;;;;5055633;28;20033;-42
2022/05/09 04:42:51;;;;;;;6.78;3.65;;;5.50;85.20;;;;;;5054593;28;20029;-42
2022/05/09 04:45:19;;;;;;;6.90;3.80;;;5.50;85.10;;;;;;5056373;28;20055;-41
2022/05/09 04:47:46;;;;;;;7.45;3.70;;;5.70;85.00;;;;;;5067243;28;20462;-44
2022/05/09 04:50:15;;;;;;;4.57;2.92;;;5.80;84.80;;;;;;5049226;28;20036;-41
2022/05/09 04:52:42;;;;;;;5.82;2.85;;;5.90;84.70;;;;;;5036301;28;20041;-42
2022/05/09 04:55:11;;;;;;;5.22;2.92;;;5.90;84.70;;;;;;5037881;28;20484;-41
2022/05/09 04:57:41;;;;;;;4.53;2.55;;;5.90;84.60;;;;;;5035496;28;20033;-42
2022/05/09 05:00:18;;;;;;;6.30;2.75;;;6.00;84.60;;;;;;5018841;28;20047;-42
2022/05/09 05:02:43;;;;;;;6.45;3.25;;;6.20;84.50;;;;;;5036028;28;20021;-43
2022/05/09 05:05:10;;;;;;;8.85;2.95;;;6.40;84.40;;;;;;5035193;28;20093;-41
2022/05/09 05:07:36;;;;;;;6.18;3.25;;;6.60;84.40;;;;;;5036941;28;20088;-42
2022/05/09 05:10:04;;;;;;;6.30;3.67;;;6.90;84.30;;;;;;5035100;28;20029;-42
2022/05/09 05:12:31;;;;;;;9.68;3.35;;;7.00;83.90;;;;;;5039466;28;20025;-42
2022/05/09 05:15:00;;;;;;;5.30;3.33;;;7.30;83.70;;;;;;5035328;28;20116;-41
2022/05/09 05:17:27;;;;;;;6.13;3.90;;;7.50;83.70;;;;;;5021534;28;20048;-43
2022/05/09 05:19:54;;;;;;;6.85;4.82;;;7.70;83.50;;;;;;5036375;28;20032;-43
2022/05/09 05:22:21;;;;;;;8.85;5.55;;;7.80;83.70;;;;;;5038937;28;20453;-42
2022/05/09 05:24:53;;;;;;;12.40;6.70;;;7.90;83.80;;;;;;5055757;28;20048;-41
2022/05/09 05:27:21;;;;;;;13.25;6.90;;;8.20;84.80;;;;;;5035731;28;20435;-41
2022/05/09 05:29:56;;;;;;;17.20;8.45;;;8.40;84.90;;;;;;5034529;28;20116;-42
2022/05/09 05:32:26;;;;;;;12.50;6.88;;;8.70;85.20;;;;;;5035160;28;20028;-43
2022/05/09 05:34:53;;;;;;;12.30;6.95;;;9.00;84.70;;;;;;5034894;28;20438;-43
2022/05/09 05:37:21;;;;;;;15.98;7.43;;;9.40;84.50;;;;;;5015272;28;20034;-43
2022/05/09 05:39:47;;;;;;;12.88;6.55;;;9.60;83.40;;;;;;5034777;28;20040;-42
2022/05/09 05:42:17;;;;;;;13.55;7.45;;;9.90;82.50;;;;;;5033251;28;20029;-45
2022/05/09 05:44:44;;;;;;;13.00;6.32;;;10.20;82.60;;;;;;5034512;28;20029;-43
2022/05/09 05:47:13;;;;;;;14.85;5.68;;;10.50;81.00;;;;;;5033846;28;20057;-47
2022/05/09 05:49:41;;;;;;;14.00;6.15;;;10.60;80.40;;;;;;5033139;28;20112;-43
2022/05/09 05:52:09;;;;;;;12.05;5.50;;;10.80;80.40;;;;;;5034719;28;20323;-44
2022/05/09 05:54:41;;;;;;;11.00;5.40;;;11.10;80.40;;;;;;5035199;28;20470;-43
2022/05/09 05:57:16;;;;;;;10.52;4.95;;;11.20;79.00;;;;;;5034692;28;20125;-43
2022/05/09 06:00:10;;;;;;;14.98;5.10;;;11.10;78.30;;;;;;5031807;28;20033;-43
2022/05/09 06:02:41;;;;;;;14.75;5.60;;;11.10;78.30;;;;;;5031864;28;20032;-44
2022/05/09 06:05:09;;;;;;;14.45;5.10;;;11.10;78.10;;;;;;5034167;28;20048;-44
2022/05/09 06:07:37;;;;;;;13.95;5.70;;;11.00;78.00;;;;;;5017217;28;20064;-44
2022/05/09 06:10:06;;;;;;;11.65;4.85;;;10.90;78.00;;;;;;5035715;28;20028;-45
2022/05/09 06:12:32;;;;;;;9.02;4.68;;;10.90;78.10;;;;;;5036089;28;20087;-44
2022/05/09 06:17:43;;;;;;;11.88;4.85;;;10.80;77.40;;;;;;5031900;28;20036;-43
2022/05/09 06:20:16;;;;;;;10.48;4.25;;;10.90;77.50;;;;;;5033036;28;20025;-46
2022/05/09 06:22:41;;;;;;;15.73;4.60;;;10.90;77.50;;;;;;5033153;28;20029;-44
2022/05/09 06:25:17;;;;;;;8.57;4.75;;;11.00;77.20;;;;;;5033725;28;20492;-45
2022/05/09 06:27:44;;;;;;;9.05;4.40;;;11.00;76.60;;;;;;5031785;28;20048;-46
2022/05/09 06:30:13;;;;;;;8.73;4.32;;;11.00;76.70;;;;;;5032643;28;20142;-44
2022/05/09 06:32:40;;;;;;;9.93;4.53;;;11.20;77.40;;;;;;5032852;28;20033;-43
2022/05/09 06:35:14;;;;;;;9.93;4.50;;;11.30;77.70;;;;;;5032794;28;20083;-44
2022/05/09 06:37:44;;;;;;;12.73;3.97;;;11.40;77.60;;;;;;5034013;28;20057;-43
2022/05/09 06:40:11;;;;;;;10.05;4.28;;;11.40;76.00;;;;;;5034077;28;20103;-44
2022/05/09 06:42:39;;;;;;;9.73;3.88;;;11.40;74.40;;;;;;5033325;28;20065;-44
2022/05/09 06:45:06;;;;;;;9.95;3.50;;;11.40;75.00;;;;;;5033039;28;20036;-48
2022/05/09 06:47:33;;;;;;;11.45;4.40;;;11.50;75.40;;;;;;5032981;28;20017;-44
2022/05/09 06:50:05;;;;;;;12.70;4.15;;;11.50;74.30;;;;;;5033858;28;20030;-44
2022/05/09 06:52:36;;;;;;;10.18;3.92;;;11.70;74.70;;;;;;5028846;28;20029;-45
2022/05/09 06:55:03;;;;;;;11.60;4.10;;;11.70;73.10;;;;;;5036223;28;20038;-44
2022/05/09 06:57:29;;;;;;;11.25;4.70;;;11.80;73.90;;;;;;5035166;28;20021;-44
2022/05/09 06:59:55;;;;;;;8.45;4.00;;;11.90;73.50;;;;;;5016372;28;20029;-51
2022/05/09 07:02:21;;;;;;;9.50;3.47;;;11.90;73.00;;;;;;5024560;28;20056;-48
2022/05/09 07:04:49;;;;;;;14.50;4.50;;;12.00;72.90;;;;;;5012050;28;20053;-44
2022/05/09 07:07:16;;;;;;;11.95;4.95;;;12.10;73.50;;;;;;5031080;28;20109;-45
2022/05/09 07:09:42;;;;;;;9.00;3.58;;;12.30;72.30;;;;;;5009224;28;20053;-44
2022/05/09 07:12:09;;;;;;;9.80;3.38;;;12.40;72.20;;;;;;5040623;28;20029;-45
2022/05/09 07:14:35;;;;;;;9.98;3.83;;;12.50;71.20;;;;;;5011516;28;20373;-49
2022/05/09 07:17:05;;;;;;;7.88;3.65;;;12.70;70.90;;;;;;5029839;28;20489;-46
2022/05/09 07:19:32;;;;;;;;;;;13.00;69.00;;;;;;5030485;28;20056;-45
2022/05/09 07:21:59;;;;;;;10.13;3.22;;;13.40;68.60;;;;;;5031419;28;19909;-45
2022/05/09 07:24:28;;;;;;;7.57;3.17;;;13.80;66.10;;;;;;5030060;28;20033;-47
2022/05/09 07:26:54;;;;;;;10.93;3.38;;;14.30;65.40;;;;;;5027101;28;20037;-47
2022/05/09 07:29:22;;;;;;;12.57;3.95;;;14.90;64.10;;;;;;5029784;28;20606;-46
2022/05/09 07:31:49;;;;;;;8.23;3.10;;;15.40;62.40;;;;;;5011735;28;20346;-46
2022/05/09 07:34:19;;;;;;;13.52;3.22;;;15.90;59.90;;;;;;5030064;28;20040;-48
2022/05/09 07:36:46;;;;;;;9.77;3.22;;;16.40;58.70;;;;;;5029726;28;20029;-48
2022/05/09 07:39:12;;;;;;;12.35;3.38;;;16.80;57.70;;;;;;5029068;28;20112;-46
2022/05/09 07:41:39;;;;;;;9.88;2.75;;;17.10;57.90;;;;;;5029936;28;20029;-46
2022/05/09 07:44:06;;;;;;;6.95;3.03;;;17.70;55.30;;;;;;5029994;28;20029;-50
2022/05/09 07:46:31;;;;;;;11.88;3.25;;;18.00;54.10;;;;;;5030368;28;20061;-48
2022/05/09 07:48:58;;;;;;;9.98;3.22;;;18.10;51.30;;;;;;5030533;28;20065;-45
2022/05/09 07:51:25;;;;;;;9.85;2.72;;;18.50;51.20;;;;;;5023905;28;20096;-48
2022/05/09 07:53:51;;;;;;;11.10;2.97;;;18.80;51.00;;;;;;5009587;28;20054;-45
2022/05/09 07:56:17;;;;;;;8.43;3.10;;;19.20;48.70;;;;;;5007543;28;20029;-46
2022/05/09 07:58:44;;;;;;;6.90;2.58;;;19.30;48.10;;;;;;5007467;28;20026;-46
2022/05/09 08:01:11;;;;;;;7.68;2.78;;;19.60;48.10;;;;;;5017986;28;20160;-47
2022/05/09 08:03:38;;;;;;;11.25;3.45;;;20.10;47.30;;;;;;5009957;28;20344;-49
2022/05/09 08:06:06;;;;;;;5.85;2.50;;;20.00;45.80;;;;;;5009285;28;20030;-47
2022/05/09 08:08:38;;;;;;;5.53;2.38;;;20.40;45.60;;;;;;5010447;28;20034;-46
2022/05/09 08:11:05;;;;;;;6.88;2.97;;;20.80;43.30;;;;;;5006898;28;20431;-47
2022/05/09 08:13:34;;;;;;;7.88;2.55;;;20.70;43.00;;;;;;5007808;28;20026;-46
2022/05/09 08:16:04;;;;;;;6.32;2.70;;;20.70;42.80;;;;;;5009251;28;20049;-46
2022/05/09 08:18:32;;;;;;;7.07;2.58;;;20.90;44.60;;;;;;5009371;28;20064;-46
2022/05/09 08:21:03;;;;;;;9.63;3.38;;;21.20;43.30;;;;;;5010084;28;20105;-46
2022/05/09 08:23:31;;;;;;;7.88;3.30;;;21.40;43.60;;;;;;5009983;28;20069;-46
2022/05/09 08:25:58;;;;;;;7.57;3.20;;;21.60;41.90;;;;;;5010265;28;20046;-46
2022/05/09 08:28:28;;;;;;;10.18;2.92;;;21.90;41.70;;;;;;5009116;28;20038;-50
2022/05/09 08:30:55;;;;;;;9.02;2.90;;;21.70;41.70;;;;;;5009549;28;20046;-46
2022/05/09 08:33:25;;;;;;;7.13;2.45;;;21.90;39.40;;;;;;5009211;28;20041;-47
2022/05/09 08:35:54;;;;;;;7.55;2.90;;;21.80;40.00;;;;;;5009702;28;20033;-46
2022/05/09 08:38:22;;;;;;;7.65;3.42;;;21.70;40.10;;;;;;5009026;28;20366;-46
2022/05/09 08:41:26;;;;;;;7.65;2.85;;;21.70;41.40;;;;;;5005680;28;20057;-46
2022/05/09 08:44:07;;;;;;;7.38;2.47;;;21.90;41.50;;;;;;5009324;28;20030;-46
2022/05/09 08:47:03;;;;;;;8.48;2.50;;;21.60;42.10;;;;;;5006056;28;20030;-46
2022/05/09 08:49:43;;;;;;;5.60;2.47;;;22.20;42.50;;;;;;5002059;28;20118;-47
2022/05/09 08:52:23;;;;;;;6.72;2.83;;;22.40;43.10;;;;;;5017831;28;20030;-47
2022/05/09 08:54:55;;;;;;;9.98;3.58;;;22.50;41.60;;;;;;5022675;28;20140;-46
2022/05/09 08:57:34;;;;;;;8.95;3.28;;;22.60;40.60;;;;;;5028133;28;20371;-47
2022/05/09 09:00:31;;;;;;;10.80;3.25;;;22.60;42.10;;;;;;5028662;28;20473;-48
2022/05/09 09:03:20;;;;;;;9.27;3.00;;;22.50;39.40;;;;;;5036472;28;20038;-47
2022/05/09 09:05:49;;;;;;;10.57;3.30;;;22.40;38.90;;;;;;5028943;28;20459;-46
2022/05/09 09:08:58;;;;;;;29.90;4.70;;;22.10;39.50;;;;;;5031740;28;20040;-48
2022/05/09 09:11:49;;;;;;;9.10;4.00;;;22.20;38.70;;;;;;4975232;28;20652;-47
2022/05/09 09:14:38;;;;;;;9.02;2.60;;;22.10;39.10;;;;;;5029808;28;20057;-48
2022/05/09 09:17:25;;;;;;;6.18;2.65;;;21.90;41.00;;;;;;5032991;28;20116;-48
2022/05/09 09:19:57;;;;;;;7.18;2.15;;;21.90;39.40;;;;;;5028206;28;20108;-46
2022/05/09 09:22:38;;;;;;;5.50;1.95;;;22.20;37.30;;;;;;5031889;28;20462;-46
2022/05/09 09:25:31;;;;;;;6.35;2.47;;;22.00;38.40;;;;;;5028394;28;20438;-51
2022/05/09 09:28:25;;;;;;;11.73;2.70;;;22.10;38.20;;;;;;5027545;28;20472;-46
2022/05/09 09:30:54;;;;;;;6.80;2.55;;;22.00;43.20;;;;;;5030912;28;20087;-46
2022/05/09 09:33:22;;;;;;;8.50;2.90;;;22.30;40.30;;;;;;5032396;28;20057;-46
2022/05/09 09:36:05;;;;;;;5.90;2.50;;;22.40;39.70;;;;;;5014381;28;20025;-48
2022/05/09 09:38:53;;;;;;;7.25;2.78;;;22.50;39.10;;;;;;5031312;28;20021;-48
2022/05/09 09:41:32;;;;;;;5.95;2.50;;;22.50;39.50;;;;;;5032425;28;20377;-48
2022/05/09 09:44:10;;;;;;;8.70;3.33;;;22.70;38.00;;;;;;5031616;28;20065;-46
2022/05/09 09:47:17;;;;;;;7.40;2.60;;;22.40;38.70;;;;;;5031880;28;20021;-46
2022/05/09 09:49:44;;;;;;;5.35;2.53;;;22.70;38.90;;;;;;5030720;28;20033;-48
2022/05/09 09:52:29;;;;;;;6.85;2.47;;;22.90;38.80;;;;;;5030518;28;20030;-48
2022/05/09 09:55:06;;;;;;;8.02;2.70;;;22.90;37.80;;;;;;5031129;28;20072;-48
2022/05/09 09:57:36;;;;;;;8.80;2.33;;;23.20;39.20;;;;;;5020574;28;20026;-47
2022/05/09 10:00:28;;;;;;;9.13;2.28;;;23.30;37.70;;;;;;5011139;28;20026;-46
2022/05/09 10:03:13;;;;;;;10.68;3.17;;;23.10;37.40;;;;;;5017788;28;20030;-47
2022/05/09 10:05:41;;;;;;;7.82;3.35;;;23.10;38.80;;;;;;5017924;28;20052;-46
2022/05/09 10:08:18;;;;;;;5.88;2.67;;;23.30;36.60;;;;;;5011720;28;20047;-49
2022/05/09 10:11:25;;;;;;;7.40;2.78;;;23.30;36.60;;;;;;5010754;28;20044;-47
2022/05/09 10:14:02;;;;;;;8.32;2.67;;;23.40;37.00;;;;;;4951656;28;20477;-47
2022/05/09 10:16:45;;;;;;;6.88;2.65;;;23.30;36.20;;;;;;4951184;28;20039;-46
2022/05/09 10:19:29;;;;;;;8.40;3.10;;;23.50;36.70;;;;;;4952296;28;20031;-48
2022/05/09 10:25:22;;;;;;;8.35;2.72;;;22.90;36.40;;;;;;4954168;28;20058;-48
2022/05/09 10:28:21;;;;;;;6.22;3.55;;;23.10;34.90;;;;;;4959259;28;20035;-46
2022/05/09 10:31:01;;;;;;;7.43;2.38;;;23.40;34.90;;;;;;4946058;28;20038;-46
2022/05/09 10:33:35;;;;;;;6.72;2.78;;;23.50;35.70;;;;;;4950791;28;20039;-46
2022/05/09 10:36:08;;;;;;;7.43;2.80;;;23.50;34.00;;;;;;4950693;28;20117;-47
2022/05/09 10:39:05;;;;;;;6.55;2.65;;;23.40;33.60;;;;;;4950100;28;20066;-53
2022/05/09 10:41:52;;;;;;;9.48;2.80;;;23.20;34.50;;;;;;4950627;28;20027;-47
2022/05/09 10:44:47;;;;;;;7.85;2.35;;;23.20;35.60;;;;;;4949307;28;20357;-46
2022/05/09 10:47:21;;;;;;;8.77;3.00;;;23.20;36.10;;;;;;4949578;28;20049;-47
2022/05/09 10:49:59;;;;;;;7.10;2.65;;;23.20;36.30;;;;;;4968159;28;20137;-49
2022/05/09 10:52:48;;;;;;;6.85;2.35;;;23.30;34.50;;;;;;5012295;28;20038;-48
2022/05/09 10:55:48;;;;;;;6.28;2.58;;;23.30;35.20;;;;;;5026093;28;20081;-46
2022/05/09 10:58:28;;;;;;;12.52;2.78;;;23.50;34.80;;;;;;5030305;28;20041;-47
2022/05/09 11:01:16;;;;;;;9.25;2.95;;;23.30;34.20;;;;;;5014103;28;20680;-47
2022/05/09 11:03:46;;;;;;;7.55;3.10;;;23.40;34.80;;;;;;5030691;28;20032;-46
2022/05/09 11:06:28;;;;;;;7.03;2.45;;;23.40;35.00;;;;;;5009757;28;20030;-46
2022/05/09 11:09:27;;;;;;;8.23;2.92;;;23.40;37.10;;;;;;5026448;28;20809;-46
2022/05/09 11:12:20;;;;;;;5.82;2.58;;;23.60;34.90;;;;;;5024870;28;20530;-47
2022/05/09 11:15:20;;;;;;;6.03;1.92;;;23.60;35.70;;;;;;5028328;28;20037;-46
2022/05/09 11:18:12;;;;;;;8.77;3.05;;;23.90;37.80;;;;;;5028346;28;20029;-47
2022/05/09 11:21:16;;;;;;;6.85;2.92;;;24.10;34.20;;;;;;5029155;28;20462;-48
2022/05/09 11:23:53;;;;;;;6.97;3.10;;;23.80;34.00;;;;;;5028575;28;20029;-52
2022/05/09 11:26:50;;;;;;;8.45;2.40;;;23.70;32.40;;;;;;5044489;28;20092;-47
2022/05/09 11:29:48;;;;;;;8.48;2.67;;;23.60;33.20;;;;;;5027111;28;20045;-48
2022/05/09 11:32:41;;;;;;;5.32;2.40;;;23.40;32.90;;;;;;5012461;28;20048;-46
2022/05/09 11:35:28;;;;;;;8.90;3.05;;;23.10;34.10;;;;;;5012365;28;20091;-47
2022/05/09 11:38:31;;;;;;;7.10;2.60;;;23.20;33.50;;;;;;5030173;28;20030;-46
2022/05/09 11:41:30;;;;;;;7.25;2.67;;;22.90;34.50;;;;;;5029282;28;20112;-48
2022/05/09 11:44:10;;;;;;;8.57;3.22;;;22.90;34.50;;;;;;5030313;28;20040;-46
2022/05/09 11:47:00;;;;;;;10.93;3.20;;;22.90;34.60;;;;;;5029505;28;20390;-46
2022/05/09 11:50:05;;;;;;;7.30;2.97;;;22.90;34.70;;;;;;5029579;28;20497;-48
2022/05/09 11:52:40;;;;;;;7.05;2.65;;;22.80;34.00;;;;;;5026746;28;20078;-49
2022/05/09 11:55:25;;;;;;;5.80;2.15;;;22.80;34.50;;;;;;5040147;28;20478;-47
2022/05/09 11:57:58;;;;;;;13.48;3.42;;;22.90;33.90;;;;;;5031371;28;20365;-47
2022/05/09 12:00:33;;;;;;;6.07;2.95;;;22.90;32.80;;;;;;5029308;28;20033;-46
2022/05/09 12:03:00;;;;;;;6.45;2.58;;;22.80;35.20;;;;;;5026665;28;20532;-48
2022/05/09 12:05:32;;;;;;;7.78;3.30;;;22.70;35.50;;;;;;5030995;28;21350;-50
2022/05/09 12:08:38;;;;;;;7.07;2.30;;;22.70;33.50;;;;;;5029766;28;20045;-46
2022/05/09 12:11:27;;;;;;;6.93;2.38;;;22.80;33.40;;;;;;5028923;28;20041;-47
2022/05/09 12:13:55;;;;;;;7.55;2.53;;;22.90;34.60;;;;;;5028814;28;20072;-48
2022/05/09 12:16:36;;;;;;;6.10;2.45;;;22.70;34.50;;;;;;5029049;28;20033;-48
2022/05/09 12:19:25;;;;;;;9.57;3.22;;;22.60;34.40;;;;;;5030955;28;20025;-46
2022/05/09 12:22:28;;;;;;;10.98;3.05;;;22.70;36.20;;;;;;5012442;28;20030;-47
2022/05/09 12:24:57;;;;;;;6.80;1.98;;;22.90;34.40;;;;;;5028802;28;20056;-49
2022/05/09 12:28:03;;;;;;;9.40;3.53;;;22.70;33.70;;;;;;5025869;28;20025;-50
2022/05/09 12:30:47;;;;;;;18.23;2.78;;;22.80;39.40;;;;;;5027352;28;20115;-48
2022/05/09 12:33:32;;;;;;;15.07;3.17;;;22.80;37.50;;;;;;5027297;28;20040;-46
2022/05/09 12:36:14;;;;;;;7.97;3.13;;;22.80;36.10;;;;;;5029321;28;20092;-46
2022/05/09 12:38:45;;;;;;;7.82;2.30;;;22.60;36.40;;;;;;5029112;28;20055;-46
2022/05/09 12:41:32;;;;;;;5.70;2.20;;;22.60;35.40;;;;;;5030295;28;20025;-46
2022/05/09 12:44:01;;;;;;;6.07;1.63;;;22.60;35.80;;;;;;5033785;28;20021;-52
2022/05/09 12:46:35;;;;;;;11.15;2.85;;;22.60;35.60;;;;;;5031782;28;20034;-46
2022/05/09 12:49:05;;;;;;;7.45;2.50;;;22.60;36.10;;;;;;5033445;28;20028;-50
2022/05/09 12:51:40;;;;;;;8.45;2.70;;;22.70;36.90;;;;;;5034814;28;20442;-46
2022/05/09 12:54:09;;;;;;;5.82;2.08;;;22.60;36.40;;;;;;5011599;28;20062;-53
2022/05/09 12:56:52;;;;;;;11.10;3.33;;;22.50;35.60;;;;;;4993510;28;20036;-50
2022/05/09 12:59:20;;;;;;;7.70;2.72;;;22.50;37.10;;;;;;5011037;28;20042;-48
2022/05/09 13:01:58;;;;;;;9.95;2.25;;;22.50;37.00;;;;;;5013323;28;20040;-47
2022/05/09 13:04:32;;;;;;;6.57;2.25;;;22.50;36.20;;;;;;5014829;28;20596;-47
2022/05/09 13:07:08;;;;;;;6.93;2.88;;;22.40;36.60;;;;;;5015619;28;20112;-51
2022/05/09 13:09:49;;;;;;;6.43;2.47;;;22.20;36.20;;;;;;5015819;28;20026;-52
2022/05/09 13:12:36;;;;;;;9.70;2.38;;;22.30;37.90;;;;;;5015495;28;20036;-46
2022/05/09 13:15:23;;;;;;;7.72;2.35;;;22.20;37.90;;;;;;5030329;28;20038;-52
2022/05/09 13:17:58;;;;;;;10.18;2.28;;;22.30;38.20;;;;;;5025785;28;20555;-47
2022/05/09 13:20:29;;;;;;;5.65;2.58;;;22.40;38.90;;;;;;5010879;28;20042;-53
2022/05/09 13:23:13;;;;;;;5.72;2.15;;;22.30;36.80;;;;;;5006156;28;20085;-51
2022/05/09 13:26:00;;;;;;;9.90;2.45;;;22.30;38.90;;;;;;5011663;28;20045;-48
2022/05/09 13:28:41;;;;;;;9.35;2.60;;;22.20;37.30;;;;;;4998762;28;20639;-48
2022/05/09 13:31:11;;;;;;;6.28;2.65;;;22.20;39.10;;;;;;5029043;28;20104;-50
2022/05/09 13:33:48;;;;;;;7.03;2.40;;;22.30;36.90;;;;;;5010995;28;20037;-50
2022/05/09 13:36:24;;;;;;;7.90;2.40;;;22.30;37.90;;;;;;5004557;28;20038;-46
2022/05/09 13:38:51;;;;;;;8.32;2.45;;;22.30;37.80;;;;;;5014371;28;20038;-49